Milborne Port, United Kingdom
Current Conditions -  °F | °C
As of 2:50 AM on Sunday 26 Oct 2014 (Local Time) from EGDY Reporting Station
Overcast Overcast  
Wind Chill: 55°   Ceiling: 3200
Heat Index: 55°   Visibility: 6mi
Dew Point: 45°   Wind: 7mph
Humidity: 67%   Direction: 220°SW
Pressure: 30.15"   Gusts: NA
Location:  50.97°N, 2.46°W
Report Text: EGDY 260150Z AUTO 22006KT 9999 OVC032/// 13/07 Q1021
Loading
Personal Weather Stations






























Interactive Weather Map New forecast layout! Learn more

10-Day Weather Forecast

Advertisements
Track Severe Weather on mobile